createdAt,value
2024-03-12T00:01:10.644Z,21.08
2024-03-12T00:03:45.599Z,19.73
2024-03-12T00:06:13.090Z,19.73
2024-03-12T00:08:44.102Z,19.90
2024-03-12T00:11:11.757Z,19.50
2024-03-12T00:13:39.637Z,20.15
2024-03-12T00:16:07.106Z,19.98
2024-03-12T00:18:34.979Z,19.67
2024-03-12T00:21:02.552Z,20.52
2024-03-12T00:23:30.283Z,19.45
2024-03-12T00:25:57.761Z,20.77
2024-03-12T00:28:25.202Z,19.83
2024-03-12T00:30:55.440Z,19.30
2024-03-12T00:35:50.459Z,18.85
2024-03-12T00:38:19.211Z,18.38
2024-03-12T00:40:49.257Z,18.95
2024-03-12T00:43:16.595Z,19.58
2024-03-12T00:45:46.153Z,19.65
2024-03-12T00:48:14.944Z,18.88
2024-03-12T00:50:44.066Z,18.27
2024-03-12T00:53:12.836Z,18.33
2024-03-12T00:55:48.684Z,19.35
2024-03-12T00:58:17.206Z,18.55
2024-03-12T01:00:46.844Z,19.60
2024-03-12T01:03:14.472Z,18.83
2024-03-12T01:05:42.807Z,19.23
2024-03-12T01:08:12.876Z,18.63
2024-03-12T01:10:40.656Z,19.42
2024-03-12T01:13:11.443Z,19.27
2024-03-12T01:15:40.294Z,19.67
2024-03-12T01:18:10.225Z,20.30
2024-03-12T01:20:38.033Z,17.92
2024-03-12T01:23:08.499Z,19.95
2024-03-12T01:25:37.350Z,19.80
2024-03-12T01:28:07.572Z,18.52
2024-03-12T01:30:36.595Z,18.00
2024-03-12T01:33:07.405Z,18.35
2024-03-12T01:35:40.117Z,18.65
2024-03-12T01:38:10.128Z,18.40
2024-03-12T01:40:37.882Z,19.10
2024-03-12T01:43:07.930Z,19.15
2024-03-12T01:45:36.192Z,19.48
2024-03-12T01:48:08.741Z,19.08
2024-03-12T01:50:37.629Z,19.73
2024-03-12T01:53:08.929Z,19.55
2024-03-12T01:55:44.727Z,17.55
2024-03-12T01:58:16.081Z,19.23
2024-03-12T02:00:45.297Z,19.45
2024-03-12T02:03:12.823Z,19.08
2024-03-12T02:05:42.073Z,17.45
2024-03-12T02:08:09.425Z,18.88
2024-03-12T02:10:36.868Z,18.15
2024-03-12T02:13:04.177Z,17.63
2024-03-12T02:15:34.316Z,17.00
2024-03-12T02:18:01.787Z,14.32
2024-03-12T02:20:29.127Z,18.50
2024-03-12T02:22:57.046Z,17.60
2024-03-12T02:25:24.990Z,16.95
2024-03-12T02:27:53.270Z,16.13
2024-03-12T02:30:21.159Z,16.63
2024-03-12T02:32:49.413Z,18.02
2024-03-12T02:35:17.737Z,12.00
2024-03-12T02:37:45.604Z,17.40
2024-03-12T02:40:17.026Z,17.40
2024-03-12T02:42:46.575Z,16.58
2024-03-12T02:45:18.112Z,16.77
2024-03-12T02:47:47.361Z,17.00
2024-03-12T02:50:16.640Z,16.70
2024-03-12T02:52:46.149Z,13.98
2024-03-12T02:55:13.866Z,14.25
2024-03-12T02:57:41.408Z,11.95
2024-03-12T03:00:18.527Z,14.43
2024-03-12T03:02:45.989Z,14.90
2024-03-12T03:05:14.295Z,13.73
2024-03-12T03:07:42.507Z,13.73
2024-03-12T03:10:11.499Z,13.90
2024-03-12T03:12:39.590Z,13.32
2024-03-12T03:15:07.275Z,12.57
2024-03-12T03:17:34.600Z,12.85
2024-03-12T03:20:01.951Z,13.77
2024-03-12T03:22:29.579Z,14.32
2024-03-12T03:24:56.932Z,14.25
2024-03-12T03:27:24.323Z,14.43
2024-03-12T03:29:52.272Z,14.35
2024-03-12T03:32:22.203Z,14.38
2024-03-12T03:34:49.391Z,14.30
2024-03-12T03:37:16.833Z,15.30
2024-03-12T03:39:44.363Z,13.70
2024-03-12T03:42:12.155Z,15.50
2024-03-12T03:44:39.503Z,14.45
2024-03-12T03:47:06.891Z,14.95
2024-03-12T03:49:34.152Z,14.65
2024-03-12T03:52:01.374Z,14.85
2024-03-12T03:54:28.715Z,14.32
2024-03-12T03:56:55.937Z,14.60
2024-03-12T03:59:23.163Z,15.15
2024-03-12T04:01:51.394Z,15.90
2024-03-12T04:04:20.421Z,15.05
2024-03-12T04:06:51.080Z,15.40
2024-03-12T04:09:21.474Z,13.65
2024-03-12T04:11:50.215Z,14.98
2024-03-12T04:14:19.276Z,13.85
2024-03-12T04:16:47.086Z,13.65
2024-03-12T04:19:15.053Z,14.23
2024-03-12T04:21:45.080Z,14.65
2024-03-12T04:24:14.815Z,14.43
2024-03-12T04:26:42.211Z,12.18
2024-03-12T04:29:11.456Z,10.38
2024-03-12T04:31:39.854Z,13.98
2024-03-12T04:34:10.206Z,12.55
2024-03-12T04:39:24.404Z,12.25
2024-03-12T04:41:52.366Z,11.68
2024-03-12T04:44:19.649Z,13.25
2024-03-12T04:46:46.934Z,11.90
2024-03-12T04:49:14.263Z,13.77
2024-03-12T04:51:41.885Z,12.68
2024-03-12T04:54:09.255Z,12.23
2024-03-12T04:56:36.482Z,9.65
2024-03-12T04:59:04.193Z,12.32
2024-03-12T05:01:31.838Z,13.63
2024-03-12T05:04:04.431Z,12.32
2024-03-12T05:06:35.779Z,10.95
2024-03-12T05:09:04.337Z,12.50
2024-03-12T05:11:31.674Z,12.10
2024-03-12T05:13:58.883Z,13.00
2024-03-12T05:16:27.258Z,12.57
2024-03-12T05:18:55.094Z,12.18
2024-03-12T05:21:22.835Z,11.18
2024-03-12T05:23:50.226Z,11.88
2024-03-12T05:26:27.386Z,11.48
2024-03-12T05:28:55.632Z,10.32
2024-03-12T05:31:30.777Z,11.18
2024-03-12T05:34:01.107Z,11.35
2024-03-12T05:36:31.946Z,8.32
2024-03-12T05:39:05.889Z,9.98
2024-03-12T05:41:50.112Z,9.18
2024-03-12T05:44:35.934Z,11.48
2024-03-12T05:47:21.787Z,9.02
2024-03-12T05:49:48.978Z,12.07
2024-03-12T05:52:17.142Z,11.18
2024-03-12T05:54:45.303Z,10.57
2024-03-12T05:57:12.621Z,11.45
2024-03-12T05:59:40.191Z,11.60
2024-03-12T06:02:07.654Z,11.07
2024-03-12T06:04:34.897Z,12.07
2024-03-12T06:07:02.992Z,8.90
2024-03-12T06:09:30.703Z,11.63
2024-03-12T06:11:57.946Z,7.57
2024-03-12T06:14:26.649Z,9.10
2024-03-12T06:16:53.986Z,9.10
2024-03-12T06:19:21.271Z,10.98
2024-03-12T06:21:48.613Z,9.77
2024-03-12T06:24:15.964Z,11.45
2024-03-12T06:26:43.787Z,9.25
2024-03-12T06:29:11.481Z,10.65
2024-03-12T06:31:38.746Z,10.57
2024-03-12T06:34:06.045Z,11.82
2024-03-12T06:36:33.622Z,8.88
2024-03-12T06:39:01.963Z,11.98
2024-03-12T06:41:29.271Z,10.55
2024-03-12T06:43:56.561Z,10.02
2024-03-12T06:46:23.900Z,9.43
2024-03-12T06:48:53.897Z,11.70
2024-03-12T06:51:21.188Z,10.20
2024-03-12T06:53:48.567Z,8.82
2024-03-12T06:56:18.387Z,10.10
2024-03-12T06:58:46.729Z,11.48
2024-03-12T07:01:15.033Z,10.23
2024-03-12T07:03:44.127Z,9.02
2024-03-12T07:06:12.381Z,9.95
2024-03-12T07:08:41.823Z,10.25
2024-03-12T07:11:09.712Z,9.60
2024-03-12T07:13:41.180Z,10.73
2024-03-12T07:16:11.196Z,10.10
2024-03-12T07:18:39.962Z,10.07
2024-03-12T07:21:07.434Z,9.82
2024-03-12T07:23:37.868Z,9.70
2024-03-12T07:26:05.844Z,9.20
2024-03-12T07:28:33.134Z,9.43
2024-03-12T07:31:00.420Z,8.80
2024-03-12T07:33:27.769Z,7.85
2024-03-12T07:35:55.096Z,9.23
2024-03-12T07:38:23.087Z,7.32
2024-03-12T07:40:50.816Z,10.45
2024-03-12T07:43:18.198Z,9.95
2024-03-12T07:45:47.662Z,9.23
2024-03-12T07:48:15.659Z,10.57
2024-03-12T07:50:44.686Z,10.00
2024-03-12T07:53:12.117Z,10.55
2024-03-12T07:55:39.866Z,10.18
2024-03-12T07:58:07.354Z,9.52
2024-03-12T08:00:34.850Z,7.78
2024-03-12T08:03:02.438Z,9.40
2024-03-12T08:05:32.230Z,8.13
2024-03-12T08:08:01.365Z,9.80
2024-03-12T08:10:28.643Z,10.27
2024-03-12T08:12:56.005Z,9.57
2024-03-12T08:15:23.362Z,9.15
2024-03-12T08:17:52.840Z,8.73
2024-03-12T08:20:23.738Z,8.18
2024-03-12T08:22:51.296Z,8.98
2024-03-12T08:25:21.972Z,9.25
2024-03-12T08:27:50.007Z,8.45
2024-03-12T08:30:17.498Z,8.77
2024-03-12T08:32:44.916Z,8.15
2024-03-12T08:35:12.402Z,8.63
2024-03-12T08:37:39.841Z,7.68
2024-03-12T08:40:08.841Z,7.90
2024-03-12T08:42:44.468Z,7.75
2024-03-12T08:45:19.301Z,7.85
2024-03-12T08:47:48.604Z,8.45
2024-03-12T08:50:18.285Z,7.75
2024-03-12T08:52:45.625Z,7.82
2024-03-12T08:55:14.016Z,6.25
2024-03-12T08:57:43.396Z,7.57
2024-03-12T09:00:13.952Z,8.23
2024-03-12T09:02:41.449Z,7.82
2024-03-12T09:05:09.193Z,7.75
2024-03-12T09:07:38.563Z,7.18
2024-03-12T09:10:13.810Z,7.50
2024-03-12T09:12:43.051Z,8.05
2024-03-12T09:15:11.288Z,6.35
2024-03-12T09:17:39.355Z,7.10
2024-03-12T09:20:07.478Z,7.85
2024-03-12T09:22:34.686Z,9.25
2024-03-12T09:25:02.028Z,7.18
2024-03-12T09:27:29.976Z,8.75
2024-03-12T09:29:57.605Z,8.80
2024-03-12T09:32:25.745Z,7.85
2024-03-12T09:34:55.878Z,7.95
2024-03-12T09:37:23.177Z,8.75
2024-03-12T09:39:53.843Z,6.22
2024-03-12T09:42:24.132Z,9.05
2024-03-12T09:44:53.024Z,8.48
2024-03-12T09:47:21.459Z,8.30
2024-03-12T09:49:50.208Z,9.63
2024-03-12T09:52:17.734Z,8.70
2024-03-12T09:54:45.376Z,8.88
2024-03-12T09:57:12.869Z,9.27
2024-03-12T09:59:41.481Z,8.43
2024-03-12T10:02:09.507Z,9.20
2024-03-12T10:04:36.947Z,7.00
2024-03-12T10:07:05.299Z,7.88
2024-03-12T10:09:32.589Z,8.43
2024-03-12T10:12:03.463Z,8.60
2024-03-12T10:14:32.551Z,7.50
2024-03-12T10:17:15.991Z,7.82
2024-03-12T10:19:50.078Z,7.63
2024-03-12T10:22:22.461Z,8.13
2024-03-12T10:24:50.341Z,6.05
2024-03-12T10:27:17.870Z,8.55
2024-03-12T10:29:45.173Z,6.50
2024-03-12T10:32:23.446Z,9.95
2024-03-12T10:34:50.976Z,10.50
2024-03-12T10:37:30.867Z,8.95
2024-03-12T10:40:17.012Z,7.68
2024-03-12T10:42:52.657Z,7.55
2024-03-12T10:45:20.583Z,11.15
2024-03-12T10:47:49.952Z,8.77
2024-03-12T10:50:17.851Z,7.75
2024-03-12T10:52:48.768Z,11.05
2024-03-12T10:55:22.428Z,10.85
2024-03-12T10:57:51.289Z,9.23
2024-03-12T11:00:21.950Z,10.43
2024-03-12T11:02:50.777Z,12.07
2024-03-12T11:05:20.516Z,8.40
2024-03-12T11:07:48.491Z,9.75
2024-03-12T11:10:16.172Z,9.55
2024-03-12T11:12:46.641Z,9.25
2024-03-12T11:15:14.851Z,8.93
2024-03-12T11:17:49.707Z,10.20
2024-03-12T11:20:27.461Z,8.70
2024-03-12T11:22:57.615Z,9.63
2024-03-12T11:25:50.529Z,9.38
2024-03-12T11:28:26.091Z,9.32
2024-03-12T11:30:56.521Z,8.10
2024-03-12T11:33:43.426Z,5.95
2024-03-12T11:36:11.191Z,6.30
2024-03-12T11:38:38.761Z,6.47
2024-03-12T11:41:06.069Z,11.00
2024-03-12T11:43:42.630Z,10.25
2024-03-12T11:46:11.088Z,11.80
2024-03-12T11:48:42.585Z,13.52
2024-03-12T11:51:13.093Z,13.00
2024-03-12T11:53:41.036Z,13.02
2024-03-12T11:56:11.447Z,14.15
2024-03-12T11:58:47.793Z,9.73
2024-03-12T12:03:42.543Z,9.57
2024-03-12T12:06:11.586Z,8.90
2024-03-12T12:08:46.029Z,9.85
2024-03-12T12:11:20.966Z,11.07
2024-03-12T12:13:48.871Z,12.27
2024-03-12T12:16:17.396Z,11.77
2024-03-12T12:18:45.875Z,13.45
2024-03-12T12:21:15.516Z,13.07
2024-03-12T12:23:47.871Z,9.63
2024-03-12T12:26:17.131Z,11.43
2024-03-12T12:28:44.618Z,10.70
2024-03-12T12:31:14.959Z,11.68
2024-03-12T12:33:45.330Z,12.40
2024-03-12T12:36:15.094Z,11.98
2024-03-12T12:38:45.830Z,12.30
2024-03-12T12:41:22.620Z,13.10
2024-03-12T12:43:54.747Z,10.18
2024-03-12T12:46:28.864Z,11.88
2024-03-12T12:48:55.988Z,12.75
2024-03-12T12:51:26.918Z,11.90
2024-03-12T12:53:54.165Z,11.48
2024-03-12T12:56:21.488Z,10.57
2024-03-12T12:58:48.838Z,13.27
2024-03-12T13:01:17.171Z,12.25
2024-03-12T13:03:48.356Z,12.00
2024-03-12T13:06:17.017Z,10.48
2024-03-12T13:08:46.118Z,13.95
2024-03-12T13:11:14.098Z,13.25
2024-03-12T13:13:42.593Z,13.30
2024-03-12T13:16:19.299Z,13.95
2024-03-12T13:18:47.810Z,13.15
2024-03-12T13:21:21.413Z,15.43
2024-03-12T13:23:51.097Z,15.82
2024-03-12T13:26:19.660Z,15.98
2024-03-12T13:28:48.565Z,16.58
2024-03-12T13:31:16.512Z,15.57
2024-03-12T13:33:43.939Z,15.73
2024-03-12T13:36:11.732Z,15.55
2024-03-12T13:38:41.036Z,15.57
2024-03-12T13:41:09.040Z,15.88
2024-03-12T13:43:36.248Z,11.18
2024-03-12T13:46:06.851Z,13.55
2024-03-12T13:48:37.636Z,17.80
2024-03-12T13:51:05.916Z,16.40
2024-03-12T13:53:33.692Z,9.60
2024-03-12T13:56:01.569Z,13.43
2024-03-12T13:58:29.577Z,18.92
2024-03-12T14:00:58.320Z,16.10
2024-03-12T14:03:26.464Z,18.77
2024-03-12T14:05:54.549Z,18.92
2024-03-12T14:08:22.455Z,18.90
2024-03-12T14:10:51.117Z,14.93
2024-03-12T14:13:22.831Z,17.20
2024-03-12T14:15:50.526Z,17.45
2024-03-12T14:18:22.756Z,14.75
2024-03-12T14:20:53.208Z,21.35
2024-03-12T14:25:50.138Z,17.70
2024-03-12T14:28:17.644Z,21.10
2024-03-12T14:30:45.830Z,20.10
2024-03-12T14:33:13.787Z,18.13
2024-03-12T14:35:41.149Z,22.30
2024-03-12T14:38:09.225Z,24.17
2024-03-12T14:40:36.528Z,23.00
2024-03-12T14:43:04.782Z,20.63
2024-03-12T14:45:33.872Z,20.33
2024-03-12T14:48:01.349Z,22.67
2024-03-12T14:50:28.632Z,20.45
2024-03-12T14:52:56.324Z,17.20
2024-03-12T14:55:23.731Z,21.45
2024-03-12T14:57:51.551Z,18.42
2024-03-12T15:00:19.074Z,20.90
2024-03-12T15:02:46.924Z,22.45
2024-03-12T15:05:15.609Z,18.35
2024-03-12T15:07:45.031Z,16.75
2024-03-12T15:10:13.902Z,21.33
2024-03-12T15:12:42.484Z,19.83
2024-03-12T15:15:12.205Z,17.58
2024-03-12T15:17:46.170Z,17.88
2024-03-12T15:20:17.051Z,22.30
2024-03-12T15:22:44.741Z,20.70
2024-03-12T15:25:13.235Z,18.02
2024-03-12T15:27:42.976Z,18.88
2024-03-12T15:30:11.170Z,20.45
2024-03-12T15:32:39.964Z,19.65
2024-03-12T15:35:09.874Z,21.25
2024-03-12T15:37:37.957Z,14.30
2024-03-12T15:40:13.234Z,15.55
2024-03-12T15:42:45.738Z,17.42
2024-03-12T15:45:16.835Z,15.20
2024-03-12T15:47:45.428Z,20.02
2024-03-12T15:50:13.558Z,16.83
2024-03-12T15:52:41.629Z,16.75
2024-03-12T15:55:09.459Z,17.27
2024-03-12T15:57:39.971Z,15.10
2024-03-12T16:00:09.619Z,17.65
2024-03-12T16:02:40.064Z,19.27
2024-03-12T16:05:07.648Z,16.75
2024-03-12T16:07:38.038Z,19.60
2024-03-12T16:10:06.217Z,15.73
2024-03-12T16:12:34.328Z,19.75
2024-03-12T16:15:02.376Z,17.58
2024-03-12T16:17:35.630Z,20.95
2024-03-12T16:20:13.248Z,19.50
2024-03-12T16:22:41.739Z,17.27
2024-03-12T16:25:11.775Z,19.27
2024-03-12T16:27:40.644Z,15.07
2024-03-12T16:30:10.136Z,16.23
2024-03-12T16:32:41.023Z,16.88
2024-03-12T16:35:11.834Z,19.08
2024-03-12T16:37:39.435Z,15.20
2024-03-12T16:40:08.541Z,18.83
2024-03-12T16:42:36.288Z,18.80
2024-03-12T16:45:04.520Z,20.05
2024-03-12T16:47:34.750Z,17.27
2024-03-12T16:52:33.452Z,11.75
2024-03-12T16:55:02.547Z,18.02
2024-03-12T16:57:30.309Z,17.50
2024-03-12T16:59:58.161Z,19.83
2024-03-12T17:02:27.604Z,18.95
2024-03-12T17:04:57.674Z,18.45
2024-03-12T17:07:25.810Z,18.10
2024-03-12T17:09:53.659Z,16.50
2024-03-12T17:12:24.292Z,15.70
2024-03-12T17:14:51.843Z,16.75
2024-03-12T17:17:28.090Z,17.60
2024-03-12T17:19:55.539Z,20.80
2024-03-12T17:22:23.212Z,15.77
2024-03-12T17:24:52.086Z,18.55
2024-03-12T17:27:20.384Z,17.90
2024-03-12T17:29:49.144Z,10.70
2024-03-12T17:32:16.770Z,15.90
2024-03-12T17:34:44.736Z,16.02
2024-03-12T17:37:15.693Z,17.98
2024-03-12T17:39:47.877Z,16.02
2024-03-12T17:42:21.644Z,16.55
2024-03-12T17:44:50.160Z,13.95
2024-03-12T17:47:18.687Z,16.23
2024-03-12T17:49:47.842Z,13.80
2024-03-12T17:52:16.451Z,13.18
2024-03-12T17:57:27.376Z,12.38
2024-03-12T17:59:54.681Z,13.45
2024-03-12T18:02:22.046Z,12.38
2024-03-12T18:04:49.987Z,14.25
2024-03-12T18:07:25.250Z,8.10
2024-03-12T18:09:54.331Z,14.50
2024-03-12T18:12:22.610Z,13.98
2024-03-12T18:14:50.313Z,13.85
2024-03-12T18:17:19.752Z,11.23
2024-03-12T18:19:49.378Z,15.70
2024-03-12T18:22:20.303Z,15.30
2024-03-12T18:24:48.050Z,15.80
2024-03-12T18:27:16.756Z,13.73
2024-03-12T18:29:47.197Z,14.98
2024-03-12T18:32:15.671Z,17.27
2024-03-12T18:34:44.304Z,15.80
2024-03-12T18:37:11.825Z,17.50
2024-03-12T18:39:39.345Z,13.00
2024-03-12T18:42:07.379Z,15.43
2024-03-12T18:44:34.619Z,13.48
2024-03-12T18:47:03.598Z,11.70
2024-03-12T18:49:30.965Z,12.00
2024-03-12T18:52:01.652Z,13.95
2024-03-12T18:54:30.470Z,11.77
2024-03-12T18:56:57.844Z,8.95
2024-03-12T18:59:25.431Z,13.82
2024-03-12T19:01:56.410Z,14.95
2024-03-12T19:04:31.383Z,12.95
2024-03-12T19:07:00.001Z,12.10
2024-03-12T19:09:27.715Z,12.52
2024-03-12T19:11:55.787Z,12.55
2024-03-12T19:14:25.890Z,10.25
2024-03-12T19:16:55.612Z,8.07
2024-03-12T19:19:30.267Z,10.68
2024-03-12T19:21:58.289Z,10.50
2024-03-12T19:24:26.247Z,9.98
2024-03-12T19:26:53.705Z,12.05
2024-03-12T19:29:22.696Z,11.52
2024-03-12T19:31:50.701Z,10.48
2024-03-12T19:34:18.156Z,9.85
2024-03-12T19:36:46.897Z,10.93
2024-03-12T19:39:14.711Z,9.55
2024-03-12T19:41:45.432Z,10.25
2024-03-12T19:44:13.341Z,7.97
2024-03-12T19:46:44.205Z,8.68
2024-03-12T19:49:11.649Z,9.23
2024-03-12T19:51:39.267Z,10.80
2024-03-12T19:54:09.459Z,9.75
2024-03-12T19:56:37.444Z,9.65
2024-03-12T19:59:06.299Z,6.97
2024-03-12T20:01:53.731Z,8.70
2024-03-12T20:04:23.685Z,7.90
2024-03-12T20:06:51.061Z,7.90
2024-03-12T20:09:24.411Z,8.50
2024-03-12T20:11:51.947Z,9.68
2024-03-12T20:14:20.024Z,7.95
2024-03-12T20:16:47.724Z,8.73
2024-03-12T20:19:16.267Z,8.27
2024-03-12T20:21:46.212Z,6.95
2024-03-12T20:24:15.141Z,8.70
2024-03-12T20:26:44.588Z,9.38
2024-03-12T20:29:13.354Z,8.07
2024-03-12T20:31:41.528Z,5.18
2024-03-12T20:34:09.838Z,8.07
2024-03-12T20:36:37.511Z,7.95
2024-03-12T20:39:13.001Z,9.00
2024-03-12T20:41:43.184Z,8.25
2024-03-12T20:44:10.501Z,8.30
2024-03-12T20:46:38.496Z,5.60
2024-03-12T20:49:06.978Z,9.05
2024-03-12T20:51:34.407Z,8.30
2024-03-12T20:54:04.323Z,8.98
2024-03-12T20:56:31.715Z,7.70
2024-03-12T20:58:59.115Z,8.95
2024-03-12T21:01:26.907Z,6.03
2024-03-12T21:03:55.007Z,6.25
2024-03-12T21:06:22.964Z,7.97
2024-03-12T21:08:50.611Z,6.78
2024-03-12T21:11:20.699Z,6.25
2024-03-12T21:13:49.031Z,8.32
2024-03-12T21:16:16.940Z,7.45
2024-03-12T21:18:44.463Z,8.55
2024-03-12T21:21:16.435Z,10.00
2024-03-12T21:23:46.222Z,5.93
2024-03-12T21:26:14.997Z,6.45
2024-03-12T21:28:42.678Z,8.68
2024-03-12T21:31:10.790Z,7.15
2024-03-12T21:33:38.046Z,7.85
2024-03-12T21:36:06.206Z,6.63
2024-03-12T21:38:34.095Z,8.30
2024-03-12T21:41:04.078Z,9.20
2024-03-12T21:43:31.583Z,5.70
2024-03-12T21:45:58.935Z,8.93
2024-03-12T21:48:29.163Z,7.22
2024-03-12T21:50:56.486Z,5.57
2024-03-12T21:53:24.340Z,8.32
2024-03-12T21:55:52.496Z,7.53
2024-03-12T21:58:20.396Z,5.78
2024-03-12T22:00:48.022Z,5.93
2024-03-12T22:03:15.392Z,8.07
2024-03-12T22:05:42.607Z,6.55
2024-03-12T22:08:09.951Z,6.43
2024-03-12T22:10:37.716Z,6.55
2024-03-12T22:13:05.267Z,7.32
2024-03-12T22:15:32.709Z,8.05
2024-03-12T22:18:02.339Z,8.02
2024-03-12T22:20:29.709Z,9.00
2024-03-12T22:22:57.420Z,7.45
2024-03-12T22:25:24.844Z,6.85
2024-03-12T22:27:51.741Z,7.30
2024-03-12T22:30:19.169Z,8.50
2024-03-12T22:32:48.656Z,6.13
2024-03-12T22:35:16.849Z,8.45
2024-03-12T22:37:48.159Z,8.70
2024-03-12T22:40:15.971Z,6.07
2024-03-12T22:42:43.354Z,7.57
2024-03-12T22:45:12.963Z,6.63
2024-03-12T22:47:41.008Z,9.57
2024-03-12T22:50:09.931Z,7.43
2024-03-12T22:52:37.696Z,5.78
2024-03-12T22:55:05.291Z,7.88
2024-03-12T22:57:37.048Z,9.95
2024-03-12T23:00:11.491Z,8.68
2024-03-12T23:02:39.590Z,7.68
2024-03-12T23:05:09.518Z,10.40
2024-03-12T23:07:40.031Z,8.75
2024-03-12T23:10:07.702Z,8.13
2024-03-12T23:12:35.214Z,8.82
2024-03-12T23:15:03.335Z,8.32
2024-03-12T23:17:31.844Z,8.68
2024-03-12T23:20:02.387Z,6.13
2024-03-12T23:22:30.600Z,7.05
2024-03-12T23:24:58.035Z,8.60
2024-03-12T23:27:25.071Z,6.05
2024-03-12T23:29:52.328Z,6.07
2024-03-12T23:32:19.656Z,6.60
2024-03-12T23:34:47.242Z,6.95
2024-03-12T23:37:14.842Z,6.65
2024-03-12T23:39:43.894Z,6.07
2024-03-12T23:42:11.115Z,6.72
2024-03-12T23:44:38.509Z,7.80
2024-03-12T23:47:06.016Z,7.32
2024-03-12T23:49:33.616Z,8.13
2024-03-12T23:52:00.960Z,6.53
2024-03-12T23:54:28.307Z,6.55
2024-03-12T23:56:56.523Z,6.45
2024-03-12T23:59:25.056Z,6.45
